RYR9ZE LGSA-EPKK
Flight info
| Callsign | RYR9ZE |
|---|---|
| Flight time | N/A |
| Altitude | 37000 |
| Route | SOKRI UY151 VELOP DCT ATV UM749 SKP UL617 BAMOS DCT PEREN DCT ATFIR N133 USALI DCT ERDOM DCT NARKA DCT KSC DCT KOJOT DCT RAZEC N133 LENOV |
| Aircraft | B738/M-SDE2E3FGHIRWXY/LB1 |
Departure
| Time | N/A |
|---|---|
| Airport | Chania International Airport (LGSA) |
Arrival
| Time | 2026-04-30 08:00 |
|---|---|
| Airport | Kraków John Paul II International Airport (EPKK) |
| Time | Latitude | Longitude | Altitude | Speed | Heading |
|---|---|---|---|---|---|
| 2026-04-30 07:11 | 45.96605 | 22.37365 | 37227 ft | 418 kts | 341° |
| 2026-04-30 07:12 | 46.02252 | 22.35155 | 37244 ft | 418 kts | 342° |
| 2026-04-30 07:12 | 46.07909 | 22.32937 | 37242 ft | 417 kts | 341° |
| 2026-04-30 07:13 | 46.13517 | 22.30734 | 37246 ft | 416 kts | 341° |
| 2026-04-30 07:13 | 46.19105 | 22.28533 | 37244 ft | 417 kts | 341° |
| 2026-04-30 07:14 | 46.24719 | 22.26318 | 37253 ft | 416 kts | 341° |
| 2026-04-30 07:14 | 46.30289 | 22.24116 | 37245 ft | 416 kts | 341° |
| 2026-04-30 07:15 | 46.35912 | 22.21888 | 37234 ft | 415 kts | 342° |
| 2026-04-30 07:15 | 46.41461 | 22.19684 | 37225 ft | 416 kts | 342° |
| 2026-04-30 07:16 | 46.47075 | 22.17451 | 37222 ft | 416 kts | 342° |
| 2026-04-30 07:16 | 46.52654 | 22.15225 | 37228 ft | 416 kts | 342° |
| 2026-04-30 07:17 | 46.58254 | 22.12987 | 37244 ft | 415 kts | 342° |
| 2026-04-30 07:18 | 46.66638 | 22.09629 | 37267 ft | 416 kts | 342° |
| 2026-04-30 07:18 | 46.72251 | 22.07375 | 37269 ft | 416 kts | 342° |
| 2026-04-30 07:19 | 46.77840 | 22.05126 | 37285 ft | 416 kts | 342° |
| 2026-04-30 07:19 | 46.83437 | 22.02867 | 37283 ft | 416 kts | 342° |
| 2026-04-30 07:20 | 46.89040 | 22.00601 | 37286 ft | 415 kts | 342° |
| 2026-04-30 07:20 | 46.94628 | 21.98338 | 37287 ft | 414 kts | 343° |
| 2026-04-30 07:21 | 47.00200 | 21.96075 | 37297 ft | 416 kts | 343° |
| 2026-04-30 07:21 | 47.05764 | 21.93810 | 37296 ft | 416 kts | 343° |
| 2026-04-30 07:22 | 47.14158 | 21.90385 | 37304 ft | 416 kts | 343° |
| 2026-04-30 07:22 | 47.16024 | 21.89622 | 37305 ft | 416 kts | 343° |
| 2026-04-30 07:23 | 47.25215 | 21.85856 | 37313 ft | 413 kts | 343° |
| 2026-04-30 07:23 | 47.30761 | 21.83563 | 37308 ft | 413 kts | 343° |
| 2026-04-30 07:24 | 47.36298 | 21.81258 | 37309 ft | 413 kts | 343° |
| 2026-04-30 07:24 | 47.41874 | 21.78932 | 37313 ft | 413 kts | 343° |
| 2026-04-30 07:25 | 47.47410 | 21.76618 | 37323 ft | 414 kts | 343° |
| 2026-04-30 07:25 | 47.52983 | 21.74285 | 37324 ft | 412 kts | 344° |
| 2026-04-30 07:26 | 47.58501 | 21.71971 | 37325 ft | 413 kts | 344° |
| 2026-04-30 07:26 | 47.64028 | 21.69647 | 37321 ft | 413 kts | 344° |
| 2026-04-30 07:27 | 47.69559 | 21.67317 | 37324 ft | 413 kts | 344° |
| 2026-04-30 07:27 | 47.75109 | 21.64972 | 37321 ft | 413 kts | 344° |
| 2026-04-30 07:28 | 47.80633 | 21.62635 | 37337 ft | 413 kts | 344° |
| 2026-04-30 07:28 | 47.86179 | 21.60284 | 37336 ft | 413 kts | 344° |
| 2026-04-30 07:29 | 47.91744 | 21.57919 | 37345 ft | 412 kts | 344° |
| 2026-04-30 07:29 | 47.97263 | 21.55568 | 37349 ft | 412 kts | 344° |
| 2026-04-30 07:30 | 48.05557 | 21.52025 | 37359 ft | 413 kts | 345° |
| 2026-04-30 07:31 | 48.11107 | 21.49648 | 37357 ft | 412 kts | 345° |
| 2026-04-30 07:31 | 48.16650 | 21.47268 | 37360 ft | 413 kts | 345° |
| 2026-04-30 07:32 | 48.22179 | 21.44889 | 37356 ft | 411 kts | 345° |
| 2026-04-30 07:32 | 48.27681 | 21.42516 | 37361 ft | 411 kts | 345° |
| 2026-04-30 07:33 | 48.33171 | 21.40143 | 37353 ft | 410 kts | 345° |
| 2026-04-30 07:33 | 48.38654 | 21.37766 | 37359 ft | 411 kts | 345° |
| 2026-04-30 07:34 | 48.44134 | 21.35386 | 37362 ft | 411 kts | 345° |
| 2026-04-30 07:34 | 48.49668 | 21.32977 | 37368 ft | 411 kts | 345° |
| 2026-04-30 07:35 | 48.55163 | 21.30580 | 37377 ft | 410 kts | 345° |
| 2026-04-30 07:35 | 48.60629 | 21.28191 | 37233 ft | 410 kts | 345° |
| 2026-04-30 07:35 | 48.63388 | 21.26983 | 36771 ft | 409 kts | 345° |
| 2026-04-30 07:36 | 48.66105 | 21.25793 | 36224 ft | 410 kts | 346° |
| 2026-04-30 07:36 | 48.68862 | 21.24590 | 35770 ft | 407 kts | 346° |
| 2026-04-30 07:36 | 48.71591 | 21.23493 | 35311 ft | 404 kts | 348° |
| 2026-04-30 07:36 | 48.74320 | 21.22493 | 34844 ft | 402 kts | 349° |
| 2026-04-30 07:37 | 48.77056 | 21.21532 | 34390 ft | 399 kts | 349° |
| 2026-04-30 07:37 | 48.79735 | 21.20598 | 33959 ft | 397 kts | 350° |
| 2026-04-30 07:37 | 48.82411 | 21.19662 | 33540 ft | 396 kts | 350° |
| 2026-04-30 07:37 | 48.85060 | 21.18728 | 33101 ft | 395 kts | 350° |
| 2026-04-30 07:38 | 48.87760 | 21.17767 | 32635 ft | 395 kts | 350° |
| 2026-04-30 07:38 | 48.90425 | 21.16812 | 32165 ft | 394 kts | 351° |
| 2026-04-30 07:38 | 48.93104 | 21.15848 | 31696 ft | 393 kts | 351° |
| 2026-04-30 07:38 | 48.95749 | 21.14890 | 31200 ft | 392 kts | 351° |
| 2026-04-30 07:39 | 48.98376 | 21.13935 | 30655 ft | 389 kts | 351° |
| 2026-04-30 07:39 | 49.00980 | 21.12985 | 30175 ft | 383 kts | 351° |
| 2026-04-30 07:39 | 49.03558 | 21.12043 | 29717 ft | 378 kts | 351° |
| 2026-04-30 07:39 | 49.06129 | 21.11103 | 29256 ft | 373 kts | 351° |
| 2026-04-30 07:40 | 49.08606 | 21.10196 | 28816 ft | 367 kts | 351° |
| 2026-04-30 07:40 | 49.11080 | 21.09289 | 28564 ft | 357 kts | 351° |
| 2026-04-30 07:40 | 49.13462 | 21.08412 | 28415 ft | 345 kts | 351° |
| 2026-04-30 07:40 | 49.15767 | 21.07565 | 28253 ft | 334 kts | 351° |
| 2026-04-30 07:41 | 49.18009 | 21.06745 | 27801 ft | 332 kts | 351° |
| 2026-04-30 07:41 | 49.20268 | 21.05924 | 27357 ft | 329 kts | 352° |
| 2026-04-30 07:41 | 49.22502 | 21.05111 | 26823 ft | 328 kts | 352° |
| 2026-04-30 07:41 | 49.24711 | 21.04306 | 26334 ft | 327 kts | 351° |
| 2026-04-30 07:42 | 49.26933 | 21.03494 | 25871 ft | 324 kts | 351° |
| 2026-04-30 07:42 | 49.29096 | 21.02701 | 25427 ft | 322 kts | 351° |
| 2026-04-30 07:42 | 49.31267 | 21.01877 | 24971 ft | 320 kts | 349° |
| 2026-04-30 07:42 | 49.33390 | 21.00805 | 24509 ft | 322 kts | 343° |
| 2026-04-30 07:43 | 49.35428 | 20.99226 | 24040 ft | 324 kts | 335° |
| 2026-04-30 07:43 | 49.37333 | 20.97350 | 23573 ft | 325 kts | 332° |
| 2026-04-30 07:43 | 49.39196 | 20.95363 | 23133 ft | 323 kts | 331° |
| 2026-04-30 07:43 | 49.41025 | 20.93378 | 22711 ft | 321 kts | 331° |
| 2026-04-30 07:44 | 49.42828 | 20.91427 | 22287 ft | 318 kts | 331° |
| 2026-04-30 07:44 | 49.44653 | 20.89467 | 21865 ft | 315 kts | 331° |
| 2026-04-30 07:44 | 49.46453 | 20.87545 | 21406 ft | 313 kts | 331° |
| 2026-04-30 07:44 | 49.48251 | 20.85636 | 20968 ft | 312 kts | 331° |
| 2026-04-30 07:45 | 49.50039 | 20.83740 | 20506 ft | 311 kts | 331° |
| 2026-04-30 07:45 | 49.51830 | 20.81842 | 20081 ft | 308 kts | 330° |
| 2026-04-30 07:45 | 49.53586 | 20.79977 | 19670 ft | 306 kts | 330° |
| 2026-04-30 07:45 | 49.55340 | 20.78114 | 19230 ft | 304 kts | 330° |
| 2026-04-30 07:46 | 49.57068 | 20.76277 | 18803 ft | 302 kts | 330° |
| 2026-04-30 07:46 | 49.58806 | 20.74427 | 18363 ft | 301 kts | 330° |
| 2026-04-30 07:46 | 49.60512 | 20.72611 | 17940 ft | 299 kts | 330° |
| 2026-04-30 07:46 | 49.62221 | 20.70789 | 17533 ft | 297 kts | 330° |
| 2026-04-30 07:47 | 49.63919 | 20.68978 | 17131 ft | 295 kts | 330° |
| 2026-04-30 07:47 | 49.65625 | 20.67157 | 16693 ft | 293 kts | 330° |
| 2026-04-30 07:47 | 49.67310 | 20.65358 | 16282 ft | 291 kts | 330° |
| 2026-04-30 07:47 | 49.68974 | 20.63578 | 15851 ft | 290 kts | 330° |
| 2026-04-30 07:48 | 49.70638 | 20.61799 | 15452 ft | 288 kts | 330° |
| 2026-04-30 07:48 | 49.72283 | 20.60037 | 15057 ft | 287 kts | 330° |
| 2026-04-30 07:48 | 49.73920 | 20.58282 | 14661 ft | 284 kts | 330° |
| 2026-04-30 07:48 | 49.75559 | 20.56523 | 14238 ft | 283 kts | 330° |
| 2026-04-30 07:49 | 49.77172 | 20.54792 | 13830 ft | 282 kts | 330° |
| 2026-04-30 07:49 | 49.78791 | 20.53053 | 13425 ft | 281 kts | 330° |
| 2026-04-30 07:49 | 49.80402 | 20.51321 | 13057 ft | 279 kts | 330° |
| 2026-04-30 07:49 | 49.81978 | 20.49624 | 12660 ft | 277 kts | 330° |
| 2026-04-30 07:50 | 49.83562 | 20.47918 | 12130 ft | 278 kts | 330° |
| 2026-04-30 07:50 | 49.85188 | 20.46169 | 11207 ft | 287 kts | 330° |
| 2026-04-30 07:50 | 49.86830 | 20.44403 | 10317 ft | 291 kts | 330° |
| 2026-04-30 07:50 | 49.88460 | 20.42637 | 9977 ft | 276 kts | 330° |
| 2026-04-30 07:51 | 49.90018 | 20.40941 | 9750 ft | 265 kts | 330° |
| 2026-04-30 07:51 | 49.91512 | 20.39323 | 9460 ft | 260 kts | 330° |
| 2026-04-30 07:51 | 49.92987 | 20.37729 | 9196 ft | 258 kts | 330° |
| 2026-04-30 07:51 | 49.94476 | 20.36122 | 8941 ft | 257 kts | 330° |
| 2026-04-30 07:52 | 49.95940 | 20.34537 | 8678 ft | 256 kts | 329° |
| 2026-04-30 07:52 | 49.97407 | 20.32946 | 8422 ft | 255 kts | 329° |
| 2026-04-30 07:52 | 49.98866 | 20.31363 | 8230 ft | 255 kts | 328° |
| 2026-04-30 07:52 | 50.00339 | 20.29762 | 7913 ft | 255 kts | 328° |
| 2026-04-30 07:53 | 50.01801 | 20.28174 | 7591 ft | 253 kts | 328° |
| 2026-04-30 07:53 | 50.03228 | 20.26618 | 7382 ft | 246 kts | 328° |
| 2026-04-30 07:53 | 50.04604 | 20.25146 | 7229 ft | 238 kts | 332° |
| 2026-04-30 07:53 | 50.06084 | 20.24095 | 7052 ft | 227 kts | 347° |
| 2026-04-30 07:54 | 50.07628 | 20.23615 | 6812 ft | 223 kts | 352° |
| 2026-04-30 07:54 | 50.09153 | 20.23226 | 6497 ft | 224 kts | 351° |
| 2026-04-30 07:54 | 50.10687 | 20.22755 | 6144 ft | 226 kts | 347° |
| 2026-04-30 07:54 | 50.12122 | 20.21687 | 5825 ft | 230 kts | 320° |
| 2026-04-30 07:55 | 50.12975 | 20.19610 | 5591 ft | 233 kts | 289° |
| 2026-04-30 07:55 | 50.13102 | 20.17040 | 5213 ft | 241 kts | 265° |
| 2026-04-30 07:55 | 50.12779 | 20.14472 | 4904 ft | 242 kts | 259° |
| 2026-04-30 07:55 | 50.12392 | 20.11928 | 4685 ft | 238 kts | 259° |
| 2026-04-30 07:56 | 50.12035 | 20.09440 | 4462 ft | 235 kts | 261° |
| 2026-04-30 07:56 | 50.11687 | 20.06972 | 4175 ft | 235 kts | 260° |
| 2026-04-30 07:56 | 50.11341 | 20.04477 | 3869 ft | 234 kts | 261° |
| 2026-04-30 07:56 | 50.11019 | 20.02003 | 3544 ft | 234 kts | 261° |
| 2026-04-30 07:57 | 50.10687 | 19.99517 | 3228 ft | 231 kts | 260° |
| 2026-04-30 07:57 | 50.10354 | 19.97142 | 3047 ft | 214 kts | 260° |
| 2026-04-30 07:57 | 50.10046 | 19.94915 | 2818 ft | 206 kts | 260° |
| 2026-04-30 07:57 | 50.09755 | 19.92768 | 2509 ft | 199 kts | 259° |
| 2026-04-30 07:58 | 50.09471 | 19.90729 | 2246 ft | 183 kts | 259° |
| 2026-04-30 07:58 | 50.09210 | 19.88839 | 1982 ft | 170 kts | 259° |
| 2026-04-30 07:58 | 50.08976 | 19.87144 | 1772 ft | 157 kts | 259° |
| 2026-04-30 07:58 | 50.08752 | 19.85529 | 1546 ft | 149 kts | 259° |
| 2026-04-30 07:59 | 50.08528 | 19.83902 | 1365 ft | 153 kts | 258° |
| 2026-04-30 07:59 | 50.08305 | 19.82309 | 1123 ft | 151 kts | 258° |
| 2026-04-30 07:59 | 50.08084 | 19.80719 | 927 ft | 149 kts | 258° |
| 2026-04-30 08:00 | 50.07715 | 19.78081 | 797 ft | 78 kts | 258° |
| 2026-04-30 08:00 | 50.07630 | 19.77463 | 797 ft | 31 kts | 257° |
| 2026-04-30 08:00 | 50.07589 | 19.77178 | 797 ft | 27 kts | 257° |
| 2026-04-30 08:00 | 50.07549 | 19.76908 | 797 ft | 20 kts | 248° |
| 2026-04-30 08:01 | 50.07420 | 19.76872 | 797 ft | 23 kts | 168° |
| 2026-04-30 08:01 | 50.07310 | 19.76978 | 797 ft | 18 kts | 85° |
| 2026-04-30 08:01 | 50.07340 | 19.77194 | 798 ft | 23 kts | 78° |
| 2026-04-30 08:01 | 50.07378 | 19.77458 | 797 ft | 25 kts | 78° |
| 2026-04-30 08:02 | 50.07451 | 19.77990 | 797 ft | 24 kts | 77° |
| 2026-04-30 08:02 | 50.07487 | 19.78253 | 798 ft | 24 kts | 78° |
| 2026-04-30 08:03 | 50.07560 | 19.78767 | 797 ft | 23 kts | 78° |
| 2026-04-30 08:03 | 50.07629 | 19.79267 | 798 ft | 23 kts | 78° |
| 2026-04-30 08:03 | 50.07663 | 19.79508 | 797 ft | 22 kts | 78° |
| 2026-04-30 08:04 | 50.07690 | 19.79693 | 798 ft | 14 kts | 77° |
| 2026-04-30 08:04 | 50.07701 | 19.79851 | 798 ft | 14 kts | 120° |
| 2026-04-30 08:04 | 50.07603 | 19.79899 | 798 ft | 17 kts | 167° |
| 2026-04-30 08:04 | 50.07472 | 19.79947 | 798 ft | 19 kts | 167° |
| 2026-04-30 08:05 | 50.07345 | 19.79993 | 798 ft | 12 kts | 167° |
| 2026-04-30 08:05 | 50.07309 | 19.80005 | 798 ft | 0 kts | 167° |